Bromide, Oklahoma
Current Conditions -  °F | °C
As of 5:35 PM on Saturday 25 Oct 2014 (Local Time) from KAQR Reporting Station
Clear Clear  
Wind Chill: 86°   Ceiling: Unl
Heat Index: 86°   Visibility: 10mi
Dew Point: 61°   Wind: 6mph
Humidity: 43%   Direction: 190°S
Pressure: 30.04"   Gusts: NA
Location:  34.42°N, 96.5°W
Report Text: KAQR 252235Z AUTO 19005KT 10SM CLR 30/16 A3004 RMK AO2
Loading
Personal Weather Stations






























Interactive Weather Map
Tropical Storm Tracking
New forecast layout! Learn more

10-Day Weather Forecast

Advertisements
Track Severe Weather on mobile